createdAt,value
2022-12-26T00:01:57.066Z,5.21
2022-12-26T00:04:51.045Z,5.39
2022-12-26T00:07:13.169Z,5.38
2022-12-26T00:09:52.449Z,5.49
2022-12-26T00:12:20.434Z,5.42
2022-12-26T00:14:48.594Z,5.47
2022-12-26T00:17:33.021Z,5.01
2022-12-26T00:20:10.772Z,4.24
2022-12-26T00:22:38.773Z,4.38
2022-12-26T00:25:10.512Z,4.31
2022-12-26T00:27:38.456Z,4.31
2022-12-26T00:30:07.615Z,4.41
2022-12-26T00:32:36.858Z,4.27
2022-12-26T00:35:05.180Z,4.08
2022-12-26T00:37:33.093Z,4.21
2022-12-26T00:40:01.083Z,4.28
2022-12-26T00:42:29.041Z,4.09
2022-12-26T00:44:57.007Z,4.21
2022-12-26T00:47:25.016Z,4.21
2022-12-26T00:50:11.546Z,4.31
2022-12-26T00:52:42.641Z,3.97
2022-12-26T00:55:10.818Z,3.88
2022-12-26T00:57:38.768Z,3.59
2022-12-26T01:00:08.125Z,3.70
2022-12-26T01:02:41.991Z,3.69
2022-12-26T01:05:13.092Z,3.56
2022-12-26T01:08:23.209Z,3.58
2022-12-26T01:10:30.369Z,3.52
2022-12-26T01:12:58.415Z,3.47
2022-12-26T01:15:26.398Z,3.63
2022-12-26T01:17:54.309Z,3.46
2022-12-26T01:20:23.546Z,3.48
2022-12-26T01:22:51.624Z,3.65
2022-12-26T01:25:19.870Z,3.27
2022-12-26T01:27:47.822Z,3.29
2022-12-26T01:30:16.246Z,3.59
2022-12-26T01:32:44.237Z,3.47
2022-12-26T01:35:12.222Z,3.66
2022-12-26T01:37:41.484Z,3.56
2022-12-26T01:40:10.341Z,3.35
2022-12-26T01:42:40.474Z,3.20
2022-12-26T01:45:26.503Z,3.34
2022-12-26T01:48:00.051Z,2.59
2022-12-26T01:50:38.579Z,3.46
2022-12-26T01:53:15.759Z,3.28
2022-12-26T01:55:46.324Z,3.33
2022-12-26T01:58:19.250Z,3.37
2022-12-26T02:00:47.430Z,3.45
2022-12-26T02:03:32.888Z,3.12
2022-12-26T02:06:01.859Z,3.34
2022-12-26T02:08:34.564Z,3.34
2022-12-26T02:11:10.071Z,3.30
2022-12-26T02:13:39.805Z,3.38
2022-12-26T02:16:10.829Z,3.10
2022-12-26T02:18:38.877Z,3.07
2022-12-26T02:21:35.762Z,3.20
2022-12-26T02:24:41.119Z,3.16
2022-12-26T02:27:25.496Z,3.39
2022-12-26T02:30:29.529Z,3.41
2022-12-26T02:33:21.248Z,3.36
2022-12-26T02:36:18.458Z,3.38
2022-12-26T02:38:57.022Z,3.55
2022-12-26T02:41:34.719Z,3.37
2022-12-26T02:44:32.381Z,3.35
2022-12-26T02:47:12.687Z,3.35
2022-12-26T02:50:20.425Z,3.46
2022-12-26T02:53:19.907Z,3.49
2022-12-26T02:56:08.645Z,3.47
2022-12-26T02:59:00.624Z,3.51
2022-12-26T03:01:52.042Z,3.29
2022-12-26T03:04:42.524Z,3.25
2022-12-26T03:07:35.171Z,3.37
2022-12-26T03:10:25.099Z,3.04
2022-12-26T03:13:13.292Z,3.17
2022-12-26T03:16:04.190Z,3.22
2022-12-26T03:18:59.472Z,3.29
2022-12-26T03:21:28.925Z,3.41
2022-12-26T03:23:58.129Z,3.27
2022-12-26T03:26:40.489Z,3.21
2022-12-26T03:29:28.104Z,2.84
2022-12-26T03:31:56.620Z,2.70
2022-12-26T03:34:25.212Z,2.93
2022-12-26T03:37:09.999Z,2.78
2022-12-26T03:40:03.430Z,2.92
2022-12-26T03:42:56.514Z,2.88
2022-12-26T03:45:53.635Z,2.60
2022-12-26T03:48:49.983Z,2.35
2022-12-26T03:51:41.829Z,2.09
2022-12-26T03:54:33.080Z,1.75
2022-12-26T03:57:29.034Z,1.81
2022-12-26T04:00:21.053Z,1.64
2022-12-26T04:03:09.917Z,1.40
2022-12-26T04:06:07.669Z,1.37
2022-12-26T04:09:01.095Z,1.39
2022-12-26T04:11:48.208Z,1.51
2022-12-26T04:14:47.253Z,1.44
2022-12-26T04:17:42.473Z,1.38
2022-12-26T04:20:20.586Z,1.55
2022-12-26T04:23:10.762Z,1.61
2022-12-26T04:26:03.737Z,1.29
2022-12-26T04:28:50.684Z,1.32
2022-12-26T04:31:42.097Z,1.24
2022-12-26T04:34:33.794Z,1.09
2022-12-26T04:37:23.411Z,0.82
2022-12-26T04:40:13.249Z,0.82
2022-12-26T04:43:01.871Z,0.75
2022-12-26T04:45:51.531Z,0.57
2022-12-26T04:48:37.241Z,0.56
2022-12-26T04:51:05.690Z,0.65
2022-12-26T04:53:33.682Z,0.68
2022-12-26T04:56:01.651Z,0.73
2022-12-26T04:58:30.230Z,0.54
2022-12-26T05:01:21.124Z,0.52
2022-12-26T05:04:06.475Z,0.57
2022-12-26T05:06:51.884Z,0.56
2022-12-26T05:09:36.749Z,0.40
2022-12-26T05:12:06.384Z,0.51
2022-12-26T05:14:36.054Z,0.46
2022-12-26T05:17:23.954Z,0.65
2022-12-26T05:20:09.405Z,0.70
2022-12-26T05:23:00.489Z,0.48
2022-12-26T05:25:49.014Z,0.52
2022-12-26T05:28:35.295Z,0.48
2022-12-26T05:31:04.130Z,0.55
2022-12-26T05:33:50.926Z,0.66
2022-12-26T05:36:21.451Z,0.69
2022-12-26T05:38:49.616Z,0.79
2022-12-26T05:41:17.700Z,0.78
2022-12-26T05:43:45.709Z,0.80
2022-12-26T05:46:13.749Z,0.55
2022-12-26T05:48:43.172Z,0.74
2022-12-26T05:51:11.219Z,0.55
2022-12-26T05:53:39.158Z,0.39
2022-12-26T05:56:09.257Z,0.57
2022-12-26T05:58:37.256Z,0.49
2022-12-26T06:01:10.064Z,0.47
2022-12-26T06:03:38.988Z,0.42
2022-12-26T06:06:09.020Z,0.62
2022-12-26T06:08:37.455Z,0.64
2022-12-26T06:11:06.973Z,0.74
2022-12-26T06:13:35.202Z,0.77
2022-12-26T06:16:06.167Z,0.85
2022-12-26T06:18:34.247Z,0.89
2022-12-26T06:21:05.589Z,0.90
2022-12-26T06:23:35.576Z,0.94
2022-12-26T06:26:04.145Z,1.05
2022-12-26T06:28:32.445Z,1.35
2022-12-26T06:31:04.509Z,1.32
2022-12-26T06:33:32.783Z,1.20
2022-12-26T06:36:05.770Z,1.54
2022-12-26T06:38:35.158Z,1.78
2022-12-26T06:41:05.307Z,1.92
2022-12-26T06:43:33.680Z,2.09
2022-12-26T06:46:03.170Z,2.34
2022-12-26T06:48:31.300Z,2.68
2022-12-26T06:50:59.185Z,3.12
2022-12-26T06:53:27.224Z,2.89
2022-12-26T06:55:56.489Z,2.67
2022-12-26T06:58:24.385Z,2.77
2022-12-26T07:00:52.416Z,2.62
2022-12-26T07:03:20.384Z,2.36
2022-12-26T07:05:48.316Z,2.25
2022-12-26T07:08:16.262Z,2.31
2022-12-26T07:10:44.287Z,2.44
2022-12-26T07:13:13.730Z,2.39
2022-12-26T07:15:41.724Z,2.52
2022-12-26T07:18:09.694Z,2.54
2022-12-26T07:20:39.032Z,2.40
2022-12-26T07:23:06.971Z,2.29
2022-12-26T07:25:34.992Z,2.20
2022-12-26T07:28:02.996Z,2.24
2022-12-26T07:30:32.364Z,2.30
2022-12-26T07:33:00.294Z,2.56
2022-12-26T07:35:28.362Z,2.74
2022-12-26T07:37:56.336Z,2.80
2022-12-26T07:40:24.339Z,2.94
2022-12-26T07:42:54.728Z,2.99
2022-12-26T07:45:22.626Z,2.98
2022-12-26T07:47:54.446Z,3.41
2022-12-26T07:50:22.554Z,3.54
2022-12-26T07:52:50.506Z,3.49
2022-12-26T07:55:18.539Z,3.28
2022-12-26T07:57:50.682Z,3.37
2022-12-26T08:00:20.038Z,3.76
2022-12-26T08:02:49.828Z,3.95
2022-12-26T08:05:20.847Z,3.86
2022-12-26T08:07:49.301Z,4.26
2022-12-26T08:10:17.621Z,4.41
2022-12-26T08:12:45.661Z,4.31
2022-12-26T08:15:14.587Z,4.33
2022-12-26T08:17:42.732Z,4.41
2022-12-26T08:20:10.905Z,4.51
2022-12-26T08:22:40.821Z,4.58
2022-12-26T08:25:10.462Z,4.76
2022-12-26T08:27:39.983Z,4.75
2022-12-26T08:30:09.170Z,4.86
2022-12-26T08:32:39.490Z,5.00
2022-12-26T08:35:10.741Z,5.28
2022-12-26T08:37:40.215Z,5.33
2022-12-26T08:40:09.285Z,5.34
2022-12-26T08:42:44.754Z,5.41
2022-12-26T08:45:24.652Z,5.62
2022-12-26T08:47:52.914Z,5.73
2022-12-26T08:50:21.201Z,5.75
2022-12-26T08:52:50.664Z,5.96
2022-12-26T08:55:18.920Z,5.94
2022-12-26T08:57:46.855Z,6.14
2022-12-26T09:00:15.912Z,6.31
2022-12-26T09:02:44.207Z,6.54
2022-12-26T09:05:12.354Z,6.57
2022-12-26T09:07:40.298Z,6.53
2022-12-26T09:10:10.503Z,6.60
2022-12-26T09:12:38.398Z,6.92
2022-12-26T09:15:07.092Z,7.02
2022-12-26T09:17:35.028Z,7.44
2022-12-26T09:20:03.172Z,7.59
2022-12-26T09:22:48.677Z,7.67
2022-12-26T09:25:18.808Z,7.91
2022-12-26T09:27:46.956Z,8.15
2022-12-26T09:30:15.705Z,7.66
2022-12-26T09:32:43.704Z,7.77
2022-12-26T09:35:11.589Z,7.64
2022-12-26T09:37:39.788Z,7.83
2022-12-26T09:40:25.002Z,7.98
2022-12-26T09:43:07.416Z,8.01
2022-12-26T09:45:55.819Z,8.14
2022-12-26T09:48:33.076Z,8.46
2022-12-26T09:51:01.148Z,8.74
2022-12-26T09:53:34.540Z,8.97
2022-12-26T09:56:13.964Z,9.04
2022-12-26T09:58:56.394Z,8.68
2022-12-26T10:01:27.428Z,8.56
2022-12-26T10:03:57.489Z,8.70
2022-12-26T10:06:27.337Z,8.99
2022-12-26T10:09:10.066Z,8.66
2022-12-26T10:11:52.253Z,8.44
2022-12-26T10:14:27.681Z,8.46
2022-12-26T10:17:02.352Z,8.24
2022-12-26T10:19:43.704Z,8.04
2022-12-26T10:22:29.791Z,8.28
2022-12-26T10:25:01.442Z,8.06
2022-12-26T10:27:43.880Z,8.28
2022-12-26T10:30:19.496Z,8.15
2022-12-26T10:32:53.976Z,8.72
2022-12-26T10:35:29.070Z,8.93
2022-12-26T10:38:03.285Z,8.92
2022-12-26T10:40:38.240Z,9.35
2022-12-26T10:43:22.224Z,9.08
2022-12-26T10:46:14.727Z,9.26
2022-12-26T10:48:42.872Z,9.28
2022-12-26T10:51:12.711Z,9.28
2022-12-26T10:53:44.492Z,8.89
2022-12-26T10:56:16.463Z,9.24
2022-12-26T10:58:59.692Z,9.17
2022-12-26T11:01:33.649Z,9.24
2022-12-26T11:04:03.495Z,8.89
2022-12-26T11:06:34.791Z,8.90
2022-12-26T11:09:02.801Z,9.17
2022-12-26T11:11:46.716Z,9.06
2022-12-26T11:14:36.377Z,9.36
2022-12-26T11:17:08.100Z,9.47
2022-12-26T11:19:38.621Z,9.35
2022-12-26T11:22:23.609Z,9.19
2022-12-26T11:25:13.530Z,9.18
2022-12-26T11:27:43.881Z,9.36
2022-12-26T11:30:22.877Z,9.42
2022-12-26T11:33:04.911Z,9.70
2022-12-26T11:35:38.212Z,9.87
2022-12-26T11:38:37.579Z,9.73
2022-12-26T11:41:31.131Z,9.39
2022-12-26T11:44:03.991Z,9.61
2022-12-26T11:46:37.149Z,9.96
2022-12-26T11:49:05.774Z,9.87
2022-12-26T11:51:41.175Z,9.71
2022-12-26T11:54:31.821Z,9.74
2022-12-26T11:57:10.556Z,9.91
2022-12-26T11:59:39.223Z,9.90
2022-12-26T12:02:30.388Z,10.06
2022-12-26T12:05:02.679Z,10.36
2022-12-26T12:07:44.883Z,10.48
2022-12-26T12:10:36.243Z,10.30
2022-12-26T12:13:13.523Z,10.42
2022-12-26T12:15:48.993Z,10.59
2022-12-26T12:18:23.605Z,10.40
2022-12-26T12:21:06.701Z,10.56
2022-12-26T12:23:54.568Z,10.72
2022-12-26T12:26:29.516Z,10.35
2022-12-26T12:29:21.335Z,10.61
2022-12-26T12:32:05.780Z,10.81
2022-12-26T12:34:47.975Z,10.76
2022-12-26T12:37:28.419Z,10.55
2022-12-26T12:40:03.044Z,10.87
2022-12-26T12:42:46.457Z,10.79
2022-12-26T12:45:27.260Z,10.85
2022-12-26T12:48:17.627Z,10.89
2022-12-26T12:50:56.809Z,10.56
2022-12-26T12:53:36.500Z,10.60
2022-12-26T12:56:21.903Z,10.53
2022-12-26T12:58:58.492Z,10.46
2022-12-26T13:01:31.174Z,10.22
2022-12-26T13:04:05.611Z,10.36
2022-12-26T13:06:40.130Z,10.55
2022-12-26T13:09:16.143Z,10.50
2022-12-26T13:11:48.307Z,10.58
2022-12-26T13:14:20.586Z,10.65
2022-12-26T13:16:52.880Z,10.88
2022-12-26T13:19:25.545Z,10.73
2022-12-26T13:22:05.772Z,10.60
2022-12-26T13:24:36.853Z,10.56
2022-12-26T13:27:14.567Z,10.73
2022-12-26T13:29:44.400Z,10.27
2022-12-26T13:32:20.826Z,10.32
2022-12-26T13:34:49.526Z,10.61
2022-12-26T13:37:57.768Z,10.60
2022-12-26T13:40:30.194Z,10.77
2022-12-26T13:43:21.430Z,10.47
2022-12-26T13:45:53.838Z,10.61
2022-12-26T13:48:59.815Z,10.59
2022-12-26T13:52:22.382Z,10.56
2022-12-26T13:55:27.517Z,10.42
2022-12-26T13:58:17.202Z,10.49
2022-12-26T14:00:48.434Z,10.11
2022-12-26T14:03:39.313Z,9.94
2022-12-26T14:06:20.012Z,9.93
2022-12-26T14:09:08.731Z,9.81
2022-12-26T14:11:52.903Z,9.84
2022-12-26T14:14:33.059Z,10.00
2022-12-26T14:17:16.725Z,9.94
2022-12-26T14:19:59.275Z,9.92
2022-12-26T14:22:42.344Z,10.01
2022-12-26T14:25:19.435Z,9.74
2022-12-26T14:27:55.351Z,9.60
2022-12-26T14:30:30.155Z,9.47
2022-12-26T14:33:23.879Z,9.26
2022-12-26T14:36:03.182Z,9.20
2022-12-26T14:38:43.613Z,9.14
2022-12-26T14:41:34.839Z,9.25
2022-12-26T14:44:17.385Z,8.91
2022-12-26T14:47:05.271Z,8.95
2022-12-26T14:49:43.780Z,9.04
2022-12-26T14:52:40.824Z,8.96
2022-12-26T14:55:47.819Z,8.86
2022-12-26T14:58:41.801Z,8.80
2022-12-26T15:01:49.289Z,8.70
2022-12-26T15:04:52.267Z,8.86
2022-12-26T15:07:55.937Z,8.88
2022-12-26T15:11:07.478Z,8.91
2022-12-26T15:14:06.983Z,8.96
2022-12-26T15:16:54.165Z,9.02
2022-12-26T15:19:48.431Z,8.94
2022-12-26T15:23:06.264Z,8.82
2022-12-26T15:26:18.622Z,8.89
2022-12-26T15:29:10.665Z,8.80
2022-12-26T15:31:50.638Z,8.70
2022-12-26T15:34:41.701Z,8.75
2022-12-26T15:37:25.023Z,8.68
2022-12-26T15:40:03.301Z,8.53
2022-12-26T15:42:42.682Z,8.58
2022-12-26T15:45:28.361Z,8.52
2022-12-26T15:48:03.208Z,8.51
2022-12-26T15:50:37.561Z,8.44
2022-12-26T15:53:19.825Z,8.28
2022-12-26T15:56:03.617Z,8.28
2022-12-26T15:58:47.384Z,8.20
2022-12-26T16:01:37.040Z,8.18
2022-12-26T16:04:07.959Z,8.12
2022-12-26T16:06:50.854Z,8.10
2022-12-26T16:09:33.316Z,8.08
2022-12-26T16:12:03.235Z,8.05
2022-12-26T16:14:33.992Z,8.01
2022-12-26T16:17:18.664Z,7.94
2022-12-26T16:19:48.408Z,7.91
2022-12-26T16:22:37.584Z,7.87
2022-12-26T16:25:07.822Z,7.73
2022-12-26T16:27:39.408Z,7.74
2022-12-26T16:30:14.199Z,7.72
2022-12-26T16:32:44.946Z,7.69
2022-12-26T16:35:22.238Z,7.64
2022-12-26T16:37:52.231Z,7.60
2022-12-26T16:40:25.625Z,7.47
2022-12-26T16:43:01.503Z,7.36
2022-12-26T16:45:35.318Z,7.35
2022-12-26T16:48:07.114Z,7.32
2022-12-26T16:50:37.904Z,7.27
2022-12-26T16:53:13.022Z,7.26
2022-12-26T16:55:48.142Z,7.15
2022-12-26T16:58:22.776Z,7.08
2022-12-26T17:01:01.824Z,7.07
2022-12-26T17:03:45.245Z,7.04
2022-12-26T17:06:17.037Z,7.04
2022-12-26T17:08:47.401Z,6.92
2022-12-26T17:11:15.881Z,6.90
2022-12-26T17:13:52.820Z,6.90
2022-12-26T17:16:24.658Z,6.86
2022-12-26T17:18:54.319Z,6.78
2022-12-26T17:21:29.931Z,6.82
2022-12-26T17:24:12.900Z,6.80
2022-12-26T17:26:42.451Z,6.71
2022-12-26T17:29:47.436Z,6.63
2022-12-26T17:32:20.154Z,6.61
2022-12-26T17:34:48.292Z,6.54
2022-12-26T17:37:25.436Z,6.43
2022-12-26T17:40:02.452Z,6.25
2022-12-26T17:42:31.953Z,6.36
2022-12-26T17:45:01.296Z,6.40
2022-12-26T17:47:30.086Z,6.40
2022-12-26T17:49:58.430Z,6.32
2022-12-26T17:52:29.611Z,6.24
2022-12-26T17:54:58.805Z,6.14
2022-12-26T17:57:29.943Z,6.14
2022-12-26T17:59:58.782Z,6.12
2022-12-26T18:02:28.343Z,6.27
2022-12-26T18:04:56.372Z,6.17
2022-12-26T18:07:32.056Z,5.94
2022-12-26T18:10:00.634Z,5.99
2022-12-26T18:12:29.220Z,5.84
2022-12-26T18:15:01.784Z,5.94
2022-12-26T18:17:34.311Z,5.85
2022-12-26T18:20:02.732Z,5.87
2022-12-26T18:22:30.913Z,5.88
2022-12-26T18:24:58.923Z,5.76
2022-12-26T18:27:31.157Z,5.68
2022-12-26T18:29:59.961Z,5.67
2022-12-26T18:32:31.085Z,5.64
2022-12-26T18:35:01.096Z,5.63
2022-12-26T18:37:30.913Z,5.53
2022-12-26T18:39:58.875Z,5.60
2022-12-26T18:42:27.464Z,5.41
2022-12-26T18:44:55.784Z,5.40
2022-12-26T18:47:24.432Z,5.39
2022-12-26T18:49:52.514Z,5.39
2022-12-26T18:52:21.900Z,5.41
2022-12-26T18:54:49.876Z,5.33
2022-12-26T18:57:20.365Z,5.16
2022-12-26T18:59:48.800Z,5.33
2022-12-26T19:02:18.457Z,4.96
2022-12-26T19:04:48.659Z,5.03
2022-12-26T19:07:17.453Z,5.13
2022-12-26T19:09:48.343Z,5.03
2022-12-26T19:12:17.414Z,5.08
2022-12-26T19:14:46.360Z,5.06
2022-12-26T19:17:14.321Z,5.01
2022-12-26T19:19:43.073Z,5.01
2022-12-26T19:22:11.252Z,5.10
2022-12-26T19:24:39.184Z,4.90
2022-12-26T19:27:08.418Z,4.61
2022-12-26T19:29:36.528Z,4.77
2022-12-26T19:32:05.178Z,4.78
2022-12-26T19:34:33.167Z,4.82
2022-12-26T19:37:01.210Z,4.75
2022-12-26T19:39:29.756Z,4.66
2022-12-26T19:41:57.670Z,4.68
2022-12-26T19:44:29.023Z,4.73
2022-12-26T19:47:11.143Z,4.74
2022-12-26T19:49:40.967Z,4.60
2022-12-26T19:52:09.458Z,4.49
2022-12-26T19:54:37.427Z,4.52
2022-12-26T19:57:05.566Z,4.49
2022-12-26T19:59:35.003Z,4.52
2022-12-26T20:02:03.090Z,4.38
2022-12-26T20:04:31.394Z,4.37
2022-12-26T20:07:01.024Z,4.02
2022-12-26T20:09:29.675Z,3.98
2022-12-26T20:11:58.223Z,3.96
2022-12-26T20:14:27.869Z,3.59
2022-12-26T20:17:07.821Z,3.94
2022-12-26T20:19:37.303Z,3.83
2022-12-26T20:22:06.457Z,3.47
2022-12-26T20:24:34.647Z,3.35
2022-12-26T20:27:03.476Z,3.29
2022-12-26T20:29:31.650Z,3.19
2022-12-26T20:32:01.188Z,3.46
2022-12-26T20:34:29.345Z,3.25
2022-12-26T20:36:57.395Z,3.17
2022-12-26T20:39:25.677Z,3.15
2022-12-26T20:41:54.180Z,3.31
2022-12-26T20:44:22.244Z,3.39
2022-12-26T20:46:50.192Z,3.54
2022-12-26T20:49:19.456Z,3.38
2022-12-26T20:51:47.377Z,3.51
2022-12-26T20:54:17.008Z,3.53
2022-12-26T20:56:46.393Z,3.48
2022-12-26T20:59:14.405Z,3.67
2022-12-26T21:01:42.665Z,3.71
2022-12-26T21:04:17.402Z,3.62
2022-12-26T21:06:47.788Z,3.64
2022-12-26T21:09:15.913Z,3.23
2022-12-26T21:11:45.599Z,3.53
2022-12-26T21:14:15.448Z,3.56
2022-12-26T21:16:46.875Z,3.69
2022-12-26T21:19:16.138Z,3.64
2022-12-26T21:21:47.921Z,3.43
2022-12-26T21:24:17.765Z,3.44
2022-12-26T21:26:46.498Z,3.35
2022-12-26T21:29:16.088Z,3.36
2022-12-26T21:31:44.129Z,2.94
2022-12-26T21:34:14.356Z,3.42
2022-12-26T21:37:02.308Z,3.32
2022-12-26T21:39:34.136Z,3.54
2022-12-26T21:42:02.459Z,3.40
2022-12-26T21:44:30.596Z,3.33
2022-12-26T21:46:58.660Z,3.40
2022-12-26T21:49:26.729Z,3.25
2022-12-26T21:51:54.702Z,3.37
2022-12-26T21:54:44.829Z,3.34
2022-12-26T21:57:17.874Z,3.33
2022-12-26T21:59:58.592Z,3.32
2022-12-26T22:02:46.365Z,3.35
2022-12-26T22:05:14.845Z,3.47
2022-12-26T22:07:42.843Z,3.43
2022-12-26T22:10:33.522Z,3.44
2022-12-26T22:13:02.600Z,3.34
2022-12-26T22:15:48.381Z,3.52
2022-12-26T22:18:16.322Z,3.44
2022-12-26T22:20:46.125Z,3.24
2022-12-26T22:23:14.734Z,3.37
2022-12-26T22:25:42.762Z,3.34
2022-12-26T22:28:12.021Z,3.29
2022-12-26T22:30:40.050Z,3.26
2022-12-26T22:33:08.017Z,3.35
2022-12-26T22:35:36.039Z,3.29
2022-12-26T22:38:03.976Z,3.27
2022-12-26T22:40:31.895Z,3.29
2022-12-26T22:43:00.021Z,3.25
2022-12-26T22:45:29.488Z,3.11
2022-12-26T22:47:57.398Z,3.02
2022-12-26T22:50:25.526Z,2.96
2022-12-26T22:52:53.510Z,3.18
2022-12-26T22:55:21.394Z,3.18
2022-12-26T22:57:52.585Z,2.66
2022-12-26T23:00:21.061Z,2.46
2022-12-26T23:02:50.478Z,2.55
2022-12-26T23:05:19.167Z,2.72
2022-12-26T23:07:47.712Z,2.84
2022-12-26T23:10:20.706Z,2.93
2022-12-26T23:12:49.513Z,2.91
2022-12-26T23:15:20.072Z,2.89
2022-12-26T23:18:15.802Z,2.50
2022-12-26T23:21:01.289Z,2.58
2022-12-26T23:23:29.623Z,2.42
2022-12-26T23:26:00.619Z,2.20
2022-12-26T23:28:46.251Z,2.29
2022-12-26T23:31:14.344Z,2.46
2022-12-26T23:33:43.896Z,2.56
2022-12-26T23:36:11.847Z,2.62
2022-12-26T23:38:39.764Z,2.55
2022-12-26T23:41:07.806Z,2.55
2022-12-26T23:43:35.811Z,2.63
2022-12-26T23:46:09.588Z,2.69
2022-12-26T23:48:37.800Z,2.46
2022-12-26T23:51:08.803Z,2.45
2022-12-26T23:53:36.826Z,2.35
2022-12-26T23:56:08.762Z,2.36
2022-12-26T23:58:38.192Z,2.00
